createdAt,value
2022-10-31T00:00:50.669Z,10.43
2022-10-31T00:03:20.145Z,10.42
2022-10-31T00:05:51.525Z,10.37
2022-10-31T00:08:19.933Z,10.33
2022-10-31T00:10:47.982Z,10.30
2022-10-31T00:13:18.328Z,10.29
2022-10-31T00:15:47.628Z,10.30
2022-10-31T00:18:15.754Z,10.27
2022-10-31T00:20:43.893Z,10.26
2022-10-31T00:23:12.991Z,10.23
2022-10-31T00:25:41.964Z,10.28
2022-10-31T00:28:13.466Z,10.17
2022-10-31T00:30:42.873Z,10.19
2022-10-31T00:33:10.854Z,10.15
2022-10-31T00:35:38.782Z,10.12
2022-10-31T00:38:06.737Z,10.04
2022-10-31T00:40:34.769Z,10.07
2022-10-31T00:43:03.167Z,10.09
2022-10-31T00:45:31.418Z,10.07
2022-10-31T00:48:01.374Z,10.00
2022-10-31T00:50:29.936Z,9.99
2022-10-31T00:52:58.917Z,9.98
2022-10-31T00:55:26.987Z,9.93
2022-10-31T00:57:55.020Z,9.92
2022-10-31T01:00:23.238Z,9.89
2022-10-31T01:02:51.225Z,9.87
2022-10-31T01:05:21.008Z,9.92
2022-10-31T01:07:48.924Z,9.87
2022-10-31T01:10:17.151Z,9.82
2022-10-31T01:12:47.418Z,9.88
2022-10-31T01:15:18.861Z,9.95
2022-10-31T01:17:46.926Z,9.93
2022-10-31T01:20:16.780Z,9.95
2022-10-31T01:22:46.220Z,9.95
2022-10-31T01:25:14.238Z,9.95
2022-10-31T01:27:42.988Z,9.91
2022-10-31T01:30:13.390Z,9.84
2022-10-31T01:32:41.317Z,9.82
2022-10-31T01:35:09.317Z,9.83
2022-10-31T01:37:37.277Z,9.80
2022-10-31T01:40:08.092Z,9.80
2022-10-31T01:42:36.005Z,9.78
2022-10-31T01:45:07.064Z,9.78
2022-10-31T01:47:41.320Z,9.72
2022-10-31T01:50:16.308Z,9.72
2022-10-31T01:52:46.669Z,9.75
2022-10-31T01:55:20.361Z,9.70
2022-10-31T01:57:52.873Z,9.66
2022-10-31T02:00:22.986Z,9.64
2022-10-31T02:02:52.116Z,9.61
2022-10-31T02:05:23.644Z,9.62
2022-10-31T02:07:57.663Z,9.61
2022-10-31T02:10:33.702Z,9.65
2022-10-31T02:13:04.741Z,9.66
2022-10-31T02:15:33.965Z,9.63
2022-10-31T02:18:02.882Z,9.57
2022-10-31T02:20:38.410Z,9.56
2022-10-31T02:23:35.318Z,9.53
2022-10-31T02:26:29.316Z,9.51
2022-10-31T02:29:14.408Z,9.48
2022-10-31T02:31:51.078Z,9.48
2022-10-31T02:37:21.661Z,9.40
2022-10-31T02:39:58.751Z,9.43
2022-10-31T02:42:48.752Z,9.41
2022-10-31T02:45:28.846Z,9.36
2022-10-31T02:48:03.558Z,9.31
2022-10-31T02:50:34.811Z,9.28
2022-10-31T02:53:05.335Z,9.24
2022-10-31T02:55:58.614Z,9.24
2022-10-31T02:58:30.595Z,9.24
2022-10-31T03:01:13.181Z,9.23
2022-10-31T03:03:56.666Z,9.26
2022-10-31T03:06:32.388Z,9.22
2022-10-31T03:09:09.165Z,9.17
2022-10-31T03:11:46.440Z,9.19
2022-10-31T03:14:22.175Z,9.16
2022-10-31T03:17:00.104Z,9.17
2022-10-31T03:19:33.365Z,9.18
2022-10-31T03:22:04.606Z,9.16
2022-10-31T03:24:39.276Z,9.14
2022-10-31T03:27:11.789Z,9.10
2022-10-31T03:29:42.257Z,9.09
2022-10-31T03:32:14.019Z,9.08
2022-10-31T03:34:46.042Z,9.03
2022-10-31T03:37:19.876Z,9.06
2022-10-31T03:39:50.721Z,9.04
2022-10-31T03:42:26.186Z,9.00
2022-10-31T03:45:03.504Z,8.99
2022-10-31T03:47:31.714Z,8.99
2022-10-31T03:50:02.827Z,8.93
2022-10-31T03:52:37.447Z,8.93
2022-10-31T03:55:10.007Z,8.97
2022-10-31T03:57:43.454Z,8.95
2022-10-31T04:00:14.677Z,8.95
2022-10-31T04:02:55.737Z,8.91
2022-10-31T04:05:26.007Z,8.92
2022-10-31T04:07:59.780Z,8.91
2022-10-31T04:10:32.893Z,8.92
2022-10-31T04:13:07.100Z,8.93
2022-10-31T04:15:47.978Z,8.94
2022-10-31T04:18:18.233Z,8.86
2022-10-31T04:20:50.947Z,8.83
2022-10-31T04:23:22.537Z,8.80
2022-10-31T04:25:51.342Z,8.79
2022-10-31T04:30:53.659Z,8.79
2022-10-31T04:33:21.839Z,8.79
2022-10-31T04:35:51.293Z,8.74
2022-10-31T04:38:20.111Z,8.72
2022-10-31T04:40:49.353Z,8.68
2022-10-31T04:43:43.072Z,8.69
2022-10-31T04:46:11.202Z,8.69
2022-10-31T04:48:39.478Z,8.68
2022-10-31T04:51:10.257Z,8.68
2022-10-31T04:53:38.325Z,8.67
2022-10-31T04:56:24.658Z,8.63
2022-10-31T04:58:58.513Z,8.55
2022-10-31T05:01:29.066Z,8.56
2022-10-31T05:03:57.594Z,8.57
2022-10-31T05:06:26.962Z,8.53
2022-10-31T05:08:54.923Z,8.56
2022-10-31T05:11:24.949Z,8.52
2022-10-31T05:13:55.566Z,8.52
2022-10-31T05:16:46.133Z,8.47
2022-10-31T05:19:32.571Z,8.48
2022-10-31T05:22:21.074Z,8.44
2022-10-31T05:24:49.065Z,8.41
2022-10-31T05:27:16.941Z,8.36
2022-10-31T05:29:45.446Z,8.40
2022-10-31T05:32:13.386Z,8.40
2022-10-31T05:35:03.846Z,8.37
2022-10-31T05:37:59.431Z,8.31
2022-10-31T05:40:28.958Z,8.33
2022-10-31T05:42:59.631Z,8.27
2022-10-31T05:45:28.311Z,8.26
2022-10-31T05:48:04.041Z,8.28
2022-10-31T05:50:53.204Z,8.23
2022-10-31T05:53:23.191Z,8.18
2022-10-31T05:55:51.240Z,8.21
2022-10-31T05:58:21.413Z,8.17
2022-10-31T06:01:03.064Z,8.14
2022-10-31T06:03:31.082Z,8.17
2022-10-31T06:06:00.299Z,8.16
2022-10-31T06:08:37.950Z,8.16
2022-10-31T06:11:09.207Z,8.18
2022-10-31T06:13:56.742Z,8.21
2022-10-31T06:16:29.029Z,8.19
2022-10-31T06:18:59.287Z,8.14
2022-10-31T06:21:27.799Z,8.16
2022-10-31T06:23:57.303Z,8.15
2022-10-31T06:27:01.684Z,8.18
2022-10-31T06:29:29.711Z,8.19
2022-10-31T06:32:04.194Z,8.17
2022-10-31T06:34:34.392Z,8.20
2022-10-31T06:37:02.534Z,8.25
2022-10-31T06:39:33.690Z,8.27
2022-10-31T06:42:01.975Z,8.24
2022-10-31T06:44:31.691Z,8.27
2022-10-31T06:47:19.981Z,8.32
2022-10-31T06:50:02.125Z,8.32
2022-10-31T06:52:30.593Z,8.36
2022-10-31T06:54:59.873Z,8.43
2022-10-31T06:57:30.915Z,8.49
2022-10-31T06:59:58.984Z,8.50
2022-10-31T07:02:37.086Z,8.54
2022-10-31T07:05:07.793Z,8.56
2022-10-31T07:07:35.732Z,8.60
2022-10-31T07:10:06.504Z,8.64
2022-10-31T07:13:05.208Z,8.72
2022-10-31T07:15:38.824Z,8.79
2022-10-31T07:18:08.594Z,8.80
2022-10-31T07:20:38.136Z,8.84
2022-10-31T07:23:06.529Z,8.86
2022-10-31T07:25:36.358Z,8.92
2022-10-31T07:28:09.039Z,8.97
2022-10-31T07:30:38.112Z,9.02
2022-10-31T07:33:07.082Z,9.03
2022-10-31T07:35:55.286Z,9.11
2022-10-31T07:38:29.553Z,9.16
2022-10-31T07:40:59.477Z,9.22
2022-10-31T07:43:30.307Z,9.25
2022-10-31T07:46:12.378Z,9.30
2022-10-31T07:48:58.993Z,9.34
2022-10-31T07:51:46.589Z,9.41
2022-10-31T07:54:27.071Z,9.46
2022-10-31T07:56:56.948Z,9.51
2022-10-31T07:59:26.728Z,9.56
2022-10-31T08:01:55.580Z,9.63
2022-10-31T08:04:32.262Z,9.67
2022-10-31T08:07:20.031Z,9.74
2022-10-31T08:09:56.009Z,9.83
2022-10-31T08:12:29.109Z,9.89
2022-10-31T08:14:57.300Z,9.95
2022-10-31T08:17:25.344Z,10.01
2022-10-31T08:19:59.525Z,10.09
2022-10-31T08:22:35.485Z,10.16
2022-10-31T08:25:06.230Z,10.22
2022-10-31T08:27:36.558Z,10.29
2022-10-31T08:30:05.153Z,10.35
2022-10-31T08:32:35.095Z,10.45
2022-10-31T08:35:25.801Z,10.52
2022-10-31T08:38:15.075Z,10.62
2022-10-31T08:40:43.917Z,10.69
2022-10-31T08:43:15.935Z,10.75
2022-10-31T08:45:45.118Z,10.84
2022-10-31T08:48:20.775Z,10.90
2022-10-31T08:50:49.409Z,10.95
2022-10-31T08:53:19.420Z,11.03
2022-10-31T08:55:59.899Z,11.08
2022-10-31T08:58:29.396Z,11.15
2022-10-31T09:01:02.917Z,11.21
2022-10-31T09:03:32.995Z,11.26
2022-10-31T09:06:04.160Z,11.32
2022-10-31T09:08:33.616Z,11.40
2022-10-31T09:11:03.459Z,11.44
2022-10-31T09:13:56.063Z,11.51
2022-10-31T09:16:42.557Z,11.59
2022-10-31T09:19:17.674Z,11.65
2022-10-31T09:21:48.000Z,11.71
2022-10-31T09:24:15.938Z,11.80
2022-10-31T09:26:44.409Z,11.84
2022-10-31T09:29:20.222Z,11.90
2022-10-31T09:31:58.235Z,11.96
2022-10-31T09:34:41.367Z,12.01
2022-10-31T09:37:13.773Z,12.08
2022-10-31T09:39:41.924Z,12.15
2022-10-31T09:42:46.768Z,12.22
2022-10-31T09:45:31.663Z,12.26
2022-10-31T09:48:17.216Z,12.32
2022-10-31T09:51:07.945Z,12.42
2022-10-31T09:54:01.453Z,12.51
2022-10-31T09:56:30.862Z,12.57
2022-10-31T09:59:02.646Z,12.63
2022-10-31T10:01:40.461Z,12.70
2022-10-31T10:04:24.910Z,12.77
2022-10-31T10:07:09.239Z,12.81
2022-10-31T10:09:43.055Z,12.90
2022-10-31T10:12:43.251Z,12.95
2022-10-31T10:15:38.413Z,13.04
2022-10-31T10:18:20.131Z,13.12
2022-10-31T10:21:16.762Z,13.20
2022-10-31T10:23:56.335Z,13.26
2022-10-31T10:29:20.088Z,13.37
2022-10-31T10:31:51.093Z,13.44
2022-10-31T10:34:27.975Z,13.49
2022-10-31T10:37:02.246Z,13.58
2022-10-31T10:39:35.779Z,13.66
2022-10-31T10:42:33.047Z,13.73
2022-10-31T10:45:19.497Z,13.83
2022-10-31T10:47:55.670Z,13.90
2022-10-31T10:50:33.777Z,13.96
2022-10-31T10:53:09.625Z,14.09
2022-10-31T10:55:43.918Z,14.15
2022-10-31T10:58:12.834Z,14.19
2022-10-31T11:00:43.324Z,14.25
2022-10-31T11:03:12.244Z,14.34
2022-10-31T11:05:46.954Z,14.44
2022-10-31T11:08:27.597Z,14.53
2022-10-31T11:11:01.718Z,14.58
2022-10-31T11:13:29.893Z,14.67
2022-10-31T11:16:01.449Z,14.78
2022-10-31T11:18:32.478Z,14.85
2022-10-31T11:21:05.191Z,14.90
2022-10-31T11:23:34.684Z,14.98
2022-10-31T11:26:05.756Z,15.06
2022-10-31T11:28:36.017Z,15.14
2022-10-31T11:31:09.975Z,15.20
2022-10-31T11:33:41.554Z,15.25
2022-10-31T11:36:18.737Z,15.31
2022-10-31T11:38:46.966Z,15.35
2022-10-31T11:41:18.104Z,15.43
2022-10-31T11:43:51.777Z,15.46
2022-10-31T11:46:23.446Z,15.49
2022-10-31T11:48:55.493Z,15.56
2022-10-31T11:51:27.954Z,15.58
2022-10-31T11:54:02.767Z,15.63
2022-10-31T11:56:41.298Z,15.70
2022-10-31T11:59:20.453Z,15.80
2022-10-31T12:01:50.777Z,15.84
2022-10-31T12:04:19.476Z,15.86
2022-10-31T12:06:51.076Z,15.91
2022-10-31T12:09:25.773Z,15.93
2022-10-31T12:12:12.465Z,15.98
2022-10-31T12:14:53.448Z,16.00
2022-10-31T12:17:25.653Z,16.02
2022-10-31T12:20:07.443Z,16.05
2022-10-31T12:22:47.875Z,16.05
2022-10-31T12:25:33.445Z,16.08
2022-10-31T12:28:13.816Z,16.06
2022-10-31T12:30:57.999Z,16.06
2022-10-31T12:33:40.198Z,16.06
2022-10-31T12:36:23.278Z,16.07
2022-10-31T12:39:07.581Z,16.07
2022-10-31T12:41:48.054Z,16.08
2022-10-31T12:44:36.438Z,16.05
2022-10-31T12:47:23.213Z,16.04
2022-10-31T12:50:00.567Z,16.06
2022-10-31T12:52:45.145Z,16.05
2022-10-31T12:55:31.664Z,16.07
2022-10-31T12:58:05.011Z,16.06
2022-10-31T13:00:36.490Z,16.06
2022-10-31T13:03:19.930Z,16.04
2022-10-31T13:05:52.123Z,16.04
2022-10-31T13:08:24.232Z,16.05
2022-10-31T13:13:39.230Z,16.06
2022-10-31T13:16:16.019Z,16.08
2022-10-31T13:18:49.446Z,16.10
2022-10-31T13:21:23.044Z,16.13
2022-10-31T13:23:52.857Z,16.17
2022-10-31T13:26:36.123Z,16.24
2022-10-31T13:29:14.711Z,16.26
2022-10-31T13:31:44.152Z,16.31
2022-10-31T13:34:22.967Z,16.31
2022-10-31T13:37:00.458Z,16.35
2022-10-31T13:39:42.342Z,16.38
2022-10-31T13:42:19.300Z,16.36
2022-10-31T13:44:47.329Z,16.37
2022-10-31T13:47:27.725Z,16.32
2022-10-31T13:50:08.350Z,16.27
2022-10-31T13:52:36.342Z,16.25
2022-10-31T13:55:04.421Z,16.27
2022-10-31T13:57:39.756Z,16.31
2022-10-31T14:00:25.587Z,16.31
2022-10-31T14:02:56.314Z,16.32
2022-10-31T14:05:28.221Z,16.33
2022-10-31T14:07:58.279Z,16.34
2022-10-31T14:10:29.833Z,16.33
2022-10-31T14:13:10.117Z,16.32
2022-10-31T14:15:43.135Z,16.32
2022-10-31T14:18:25.662Z,16.36
2022-10-31T14:20:53.745Z,16.35
2022-10-31T14:23:36.663Z,16.34
2022-10-31T14:26:34.835Z,16.38
2022-10-31T14:29:20.100Z,16.36
2022-10-31T14:31:55.686Z,16.37
2022-10-31T14:34:28.298Z,16.36
2022-10-31T14:37:06.935Z,16.36
2022-10-31T14:39:42.472Z,16.35
2022-10-31T14:42:29.579Z,16.34
2022-10-31T14:45:17.935Z,16.35
2022-10-31T14:47:58.704Z,16.36
2022-10-31T14:50:42.394Z,16.35
2022-10-31T14:53:17.446Z,16.36
2022-10-31T14:55:49.428Z,16.34
2022-10-31T14:58:22.022Z,16.30
2022-10-31T15:00:55.107Z,16.29
2022-10-31T15:03:30.573Z,16.26
2022-10-31T15:06:02.669Z,16.20
2022-10-31T15:08:36.432Z,16.14
2022-10-31T15:11:14.644Z,16.10
2022-10-31T15:13:48.010Z,16.03
2022-10-31T15:16:21.836Z,15.98
2022-10-31T15:18:56.071Z,15.94
2022-10-31T15:21:26.501Z,15.89
2022-10-31T15:23:57.467Z,15.83
2022-10-31T15:26:28.921Z,15.80
2022-10-31T15:29:03.213Z,15.77
2022-10-31T15:31:33.107Z,15.74
2022-10-31T15:34:05.883Z,15.67
2022-10-31T15:36:38.384Z,15.61
2022-10-31T15:39:06.947Z,15.59
2022-10-31T15:41:40.719Z,15.55
2022-10-31T15:44:17.615Z,15.48
2022-10-31T15:46:54.794Z,15.43
2022-10-31T15:49:34.958Z,15.38
2022-10-31T15:52:14.176Z,15.36
2022-10-31T15:54:50.453Z,15.32
2022-10-31T15:57:18.807Z,15.23
2022-10-31T15:59:49.738Z,15.18
2022-10-31T16:02:22.101Z,15.12
2022-10-31T16:04:52.304Z,15.08
2022-10-31T16:07:23.426Z,15.02
2022-10-31T16:09:57.327Z,15.00
2022-10-31T16:12:31.237Z,14.95
2022-10-31T16:14:59.203Z,14.93
2022-10-31T16:17:29.760Z,14.92
2022-10-31T16:20:01.973Z,14.90
2022-10-31T16:22:32.687Z,14.85
2022-10-31T16:25:07.100Z,14.80
2022-10-31T16:27:36.996Z,14.75
2022-10-31T16:30:26.725Z,14.70
2022-10-31T16:32:59.137Z,14.64
2022-10-31T16:35:29.705Z,14.58
2022-10-31T16:37:57.658Z,14.42
2022-10-31T16:40:26.511Z,14.36
2022-10-31T16:42:54.993Z,14.33
2022-10-31T16:45:25.172Z,14.24
2022-10-31T16:47:53.655Z,14.21
2022-10-31T16:50:25.233Z,14.19
2022-10-31T16:53:12.837Z,14.20
2022-10-31T16:55:46.654Z,14.12
2022-10-31T16:58:22.898Z,14.11
2022-10-31T17:00:51.719Z,14.04
2022-10-31T17:03:19.793Z,14.00
2022-10-31T17:05:49.097Z,13.95
2022-10-31T17:08:17.221Z,13.92
2022-10-31T17:10:46.959Z,13.89
2022-10-31T17:13:20.290Z,13.84
2022-10-31T17:15:52.535Z,13.79
2022-10-31T17:18:26.040Z,13.75
2022-10-31T17:21:00.146Z,13.73
2022-10-31T17:23:29.101Z,13.70
2022-10-31T17:25:57.248Z,13.66
2022-10-31T17:28:26.558Z,13.62
2022-10-31T17:30:55.625Z,13.60
2022-10-31T17:33:23.726Z,13.56
2022-10-31T17:35:51.805Z,13.49
2022-10-31T17:38:21.171Z,13.47
2022-10-31T17:40:49.145Z,13.48
2022-10-31T17:43:17.151Z,13.35
2022-10-31T17:45:45.148Z,13.30
2022-10-31T17:48:13.951Z,13.29
2022-10-31T17:50:41.941Z,13.22
2022-10-31T17:53:09.969Z,13.13
2022-10-31T17:55:39.247Z,13.11
2022-10-31T17:58:07.187Z,13.06
2022-10-31T18:00:35.461Z,13.04
2022-10-31T18:03:04.501Z,12.96
2022-10-31T18:05:32.914Z,12.94
2022-10-31T18:08:04.156Z,12.87
2022-10-31T18:10:32.698Z,12.84
2022-10-31T18:13:02.266Z,12.78
2022-10-31T18:15:30.374Z,12.74
2022-10-31T18:17:58.441Z,12.83
2022-10-31T18:20:26.531Z,12.85
2022-10-31T18:22:54.611Z,12.84
2022-10-31T18:25:22.721Z,12.82
2022-10-31T18:27:50.912Z,12.76
2022-10-31T18:30:20.590Z,12.76
2022-10-31T18:32:51.241Z,12.72
2022-10-31T18:35:19.915Z,12.74
2022-10-31T18:37:47.821Z,12.75
2022-10-31T18:40:16.540Z,12.76
2022-10-31T18:42:44.632Z,12.73
2022-10-31T18:45:32.238Z,12.72
2022-10-31T18:48:02.406Z,12.74
2022-10-31T18:50:30.786Z,12.68
2022-10-31T18:52:59.122Z,12.66
2022-10-31T18:55:27.338Z,12.67
2022-10-31T18:57:55.215Z,12.64
2022-10-31T19:00:23.426Z,12.64
2022-10-31T19:02:51.350Z,12.61
2022-10-31T19:05:21.656Z,12.63
2022-10-31T19:07:49.695Z,12.61
2022-10-31T19:10:17.673Z,12.58
2022-10-31T19:12:45.601Z,12.61
2022-10-31T19:15:13.566Z,12.59
2022-10-31T19:17:41.666Z,12.62
2022-10-31T19:20:10.706Z,12.58
2022-10-31T19:22:40.015Z,12.58
2022-10-31T19:25:10.682Z,12.56
2022-10-31T19:27:39.789Z,12.57
2022-10-31T19:30:09.180Z,12.53
2022-10-31T19:32:37.273Z,12.48
2022-10-31T19:35:09.094Z,12.45
2022-10-31T19:37:37.102Z,12.47
2022-10-31T19:40:08.664Z,12.44
2022-10-31T19:42:36.878Z,12.42
2022-10-31T19:45:05.808Z,12.35
2022-10-31T19:47:34.669Z,12.32
2022-10-31T19:50:05.146Z,12.22
2022-10-31T19:52:35.889Z,12.17
2022-10-31T19:55:04.193Z,12.23
2022-10-31T19:58:00.294Z,12.23
2022-10-31T20:00:25.810Z,12.22
2022-10-31T20:02:53.692Z,12.15
2022-10-31T20:05:22.467Z,12.13
2022-10-31T20:07:50.419Z,12.14
2022-10-31T20:10:18.578Z,12.09
2022-10-31T20:12:47.984Z,12.11
2022-10-31T20:15:16.441Z,12.10
2022-10-31T20:17:44.617Z,12.10
2022-10-31T20:20:13.016Z,12.13
2022-10-31T20:22:41.199Z,12.06
2022-10-31T20:25:09.699Z,12.04
2022-10-31T20:27:37.579Z,12.02
2022-10-31T20:30:08.522Z,12.00
2022-10-31T20:32:37.235Z,11.99
2022-10-31T20:35:05.639Z,11.97
2022-10-31T20:37:33.637Z,12.00
2022-10-31T20:40:01.582Z,12.02
2022-10-31T20:42:29.485Z,12.04
2022-10-31T20:44:57.462Z,12.05
2022-10-31T20:47:26.833Z,12.07
2022-10-31T20:49:54.805Z,12.04
2022-10-31T20:52:22.724Z,12.04
2022-10-31T20:54:50.712Z,12.04
2022-10-31T20:57:18.606Z,12.03
2022-10-31T20:59:46.485Z,11.96
2022-10-31T21:02:14.519Z,11.95
2022-10-31T21:04:43.970Z,11.97
2022-10-31T21:07:11.904Z,11.92
2022-10-31T21:09:39.877Z,11.87
2022-10-31T21:12:07.927Z,11.83
2022-10-31T21:14:36.508Z,11.81
2022-10-31T21:17:04.968Z,11.80
2022-10-31T21:19:33.548Z,11.75
2022-10-31T21:22:02.961Z,11.74
2022-10-31T21:24:30.892Z,11.75
2022-10-31T21:26:58.785Z,11.74
2022-10-31T21:29:26.828Z,11.71
2022-10-31T21:31:54.764Z,11.66
2022-10-31T21:34:22.792Z,11.67
2022-10-31T21:36:50.766Z,11.67
2022-10-31T21:39:20.137Z,11.62
2022-10-31T21:41:48.046Z,11.62
2022-10-31T21:44:15.995Z,11.62
2022-10-31T21:46:44.975Z,11.55
2022-10-31T21:49:12.946Z,11.54
2022-10-31T21:51:42.743Z,11.51
2022-10-31T21:54:30.147Z,11.51
2022-10-31T21:57:01.592Z,11.53
2022-10-31T21:59:30.089Z,11.53
2022-10-31T22:02:00.509Z,11.51
2022-10-31T22:04:28.797Z,11.55
2022-10-31T22:06:56.982Z,11.55
2022-10-31T22:09:25.009Z,11.54
2022-10-31T22:11:53.045Z,11.52
2022-10-31T22:14:22.489Z,11.49
2022-10-31T22:16:50.395Z,11.54
2022-10-31T22:19:18.371Z,11.56
2022-10-31T22:21:48.820Z,11.54
2022-10-31T22:24:17.815Z,11.58
2022-10-31T22:26:46.000Z,11.55
2022-10-31T22:29:16.058Z,11.52
2022-10-31T22:31:49.386Z,11.54
2022-10-31T22:34:20.170Z,11.55
2022-10-31T22:36:48.107Z,11.51
2022-10-31T22:39:16.252Z,11.49
2022-10-31T22:41:44.277Z,11.49
2022-10-31T22:44:12.853Z,11.50
2022-10-31T22:46:41.167Z,11.49
2022-10-31T22:49:14.604Z,11.52
2022-10-31T22:51:44.106Z,11.53
2022-10-31T22:54:14.538Z,11.51
2022-10-31T22:56:42.883Z,11.51
2022-10-31T22:59:13.157Z,11.50
2022-10-31T23:01:41.283Z,11.46
2022-10-31T23:06:44.142Z,11.43
2022-10-31T23:09:15.851Z,11.40
2022-10-31T23:11:44.005Z,11.38
2022-10-31T23:14:14.387Z,11.39
2022-10-31T23:16:45.893Z,11.36
2022-10-31T23:19:17.836Z,11.35
2022-10-31T23:21:59.822Z,11.33
2022-10-31T23:24:32.781Z,11.35
2022-10-31T23:27:10.313Z,11.34
2022-10-31T23:29:46.627Z,11.34
2022-10-31T23:32:18.598Z,11.31
2022-10-31T23:34:49.313Z,11.33
2022-10-31T23:37:18.877Z,11.31
2022-10-31T23:39:47.167Z,11.29
2022-10-31T23:42:15.560Z,11.28
2022-10-31T23:44:44.206Z,11.27
2022-10-31T23:47:12.889Z,11.25
2022-10-31T23:49:42.271Z,11.24
2022-10-31T23:52:12.556Z,11.21
2022-10-31T23:54:40.861Z,11.18
2022-10-31T23:57:09.114Z,11.20
2022-10-31T23:59:37.474Z,11.20
